Time;durP1;ratioP1;P1;durP2;ratioP2;P2;SDS_P1;SDS_P2;PMS_P1;PMS_P2;Temp;Humidity;BMP_temperature;BMP_pressure;BME280_temperature;BME280_humidity;BME280_pressure;Samples;Min_cycle;Max_cycle;Signal;HPM_P1;HPM_P2
2022/07/25 00:01:51;;;;;;;26.50;24.38;;;17.50;99.90;;;;;;5057417;28;20090;-74
2022/07/25 00:04:17;;;;;;;27.13;24.88;;;17.50;99.90;;;;;;5071394;28;20067;-73
2022/07/25 00:06:45;;;;;;;26.73;24.67;;;17.60;99.90;;;;;;5041821;28;20464;-74
2022/07/25 00:09:12;;;;;;;25.98;23.83;;;17.70;99.90;;;;;;5055087;28;20070;-74
2022/07/25 00:11:39;;;;;;;26.35;24.20;;;17.80;99.90;;;;;;5072085;28;20040;-74
2022/07/25 00:14:06;;;;;;;26.80;24.60;;;17.80;99.90;;;;;;5037936;28;20039;-73
2022/07/25 00:16:33;;;;;;;26.38;24.25;;;17.90;99.90;;;;;;5052483;28;20052;-74
2022/07/25 00:19:00;;;;;;;26.17;24.38;;;17.90;99.90;;;;;;5056779;28;20620;-73
2022/07/25 00:21:27;;;;;;;25.17;23.45;;;18.00;99.90;;;;;;5052664;28;20059;-74
2022/07/25 00:23:54;;;;;;;27.23;25.23;;;17.90;99.90;;;;;;5055172;28;20099;-74
2022/07/25 00:26:21;;;;;;;27.08;24.95;;;17.90;99.90;;;;;;5068013;28;20036;-73
2022/07/25 00:28:48;;;;;;;26.83;25.02;;;17.80;99.90;;;;;;5051158;28;20062;-74
2022/07/25 00:31:14;;;;;;;26.38;24.33;;;17.90;99.90;;;;;;5067007;28;20098;-73
2022/07/25 00:33:41;;;;;;;27.45;25.38;;;18.00;99.90;;;;;;5049279;28;20574;-73
2022/07/25 00:36:09;;;;;;;26.58;24.55;;;17.90;99.90;;;;;;5071025;28;20052;-73
2022/07/25 00:38:36;;;;;;;26.92;24.92;;;17.80;99.90;;;;;;5072433;28;20101;-74
2022/07/25 00:41:04;;;;;;;25.65;23.85;;;17.90;99.90;;;;;;5072181;28;20101;-73
2022/07/25 00:43:31;;;;;;;26.65;24.58;;;17.90;99.90;;;;;;5055254;28;20318;-74
2022/07/25 00:45:58;;;;;;;26.38;24.40;;;17.80;99.90;;;;;;5073747;28;20485;-74
2022/07/25 00:48:33;;;;;;;26.75;24.85;;;17.80;99.90;;;;;;5138505;22;20763;-77
2022/07/25 00:51:00;;;;;;;27.48;25.27;;;17.80;99.90;;;;;;5100874;28;20067;-78
2022/07/25 00:53:27;;;;;;;27.40;25.50;;;17.70;99.90;;;;;;5095629;28;20130;-77
2022/07/25 00:55:54;;;;;;;27.10;24.85;;;17.90;99.90;;;;;;5090698;28;20093;-78
2022/07/25 00:58:21;;;;;;;26.70;24.58;;;17.80;99.90;;;;;;5065246;28;20117;-77
2022/07/25 01:00:48;;;;;;;27.70;25.55;;;17.70;99.90;;;;;;5083030;28;20044;-77
2022/07/25 01:03:16;;;;;;;26.98;25.02;;;17.70;99.90;;;;;;5077598;28;20069;-78
2022/07/25 01:05:43;;;;;;;27.50;25.60;;;17.80;99.90;;;;;;5076151;28;20124;-77
2022/07/25 01:08:10;;;;;;;27.63;25.42;;;17.80;99.90;;;;;;5090803;28;20097;-77
2022/07/25 01:10:37;;;;;;;27.17;25.15;;;17.90;99.90;;;;;;5097367;28;20540;-76
2022/07/25 01:13:04;;;;;;;26.70;24.80;;;17.90;99.90;;;;;;5108620;27;20055;-77
2022/07/25 01:15:31;;;;;;;27.38;25.35;;;17.90;99.90;;;;;;5079374;28;20463;-77
2022/07/25 01:17:58;;;;;;;27.85;25.80;;;17.90;99.90;;;;;;5088160;28;20050;-77
2022/07/25 01:20:27;;;;;;;28.10;25.83;;;17.80;99.90;;;;;;5091974;28;20075;-76
2022/07/25 01:22:55;;;;;;;26.52;24.77;;;17.80;99.90;;;;;;5091061;28;20044;-76
2022/07/25 01:25:22;;;;;;;27.10;25.00;;;17.70;99.90;;;;;;5074749;28;20055;-76
2022/07/25 01:27:50;;;;;;;28.17;26.00;;;17.70;99.90;;;;;;5076428;28;20480;-76
2022/07/25 01:30:23;;;;;;;27.55;25.55;;;17.60;99.90;;;;;;5084183;28;20054;-76
2022/07/25 01:32:50;;;;;;;28.23;26.15;;;17.70;99.90;;;;;;5079653;28;20051;-76
2022/07/25 01:35:16;;;;;;;27.40;25.30;;;17.60;99.90;;;;;;5090373;28;20052;-77
2022/07/25 01:37:43;;;;;;;27.60;25.40;;;17.60;99.90;;;;;;5109561;28;20032;-76
2022/07/25 01:40:12;;;;;;;27.33;25.27;;;17.60;99.90;;;;;;5119684;27;20032;-76
2022/07/25 01:42:40;;;;;;;27.98;25.80;;;17.70;99.90;;;;;;5085372;28;20051;-76
2022/07/25 01:45:47;;;;;;;26.48;24.67;;;17.80;99.90;;;;;;5086599;28;20043;-76
2022/07/25 01:48:13;;;;;;;;;;;17.70;99.90;;;;;;5077205;27;20036;-78
2022/07/25 01:51:00;;;;;;;26.90;24.83;;;17.60;99.90;;;;;;5092182;27;20061;-75
2022/07/25 01:53:27;;;;;;;26.52;24.65;;;17.50;99.90;;;;;;5095221;28;20105;-76
2022/07/25 01:55:54;;;;;;;27.15;25.05;;;17.60;99.90;;;;;;5091802;28;20510;-76
2022/07/25 01:58:23;;;;;;;27.10;24.88;;;17.60;99.90;;;;;;5081239;28;20097;-76
2022/07/25 02:00:51;;;;;;;27.52;25.40;;;17.50;99.90;;;;;;5063505;28;20048;-75
2022/07/25 02:03:29;;;;;;;26.42;24.52;;;17.50;99.90;;;;;;5072234;28;20040;-75
2022/07/25 02:06:05;;;;;;;28.48;25.92;;;17.40;99.90;;;;;;5068977;28;20048;-75
2022/07/25 02:08:32;;;;;;;26.55;24.75;;;17.40;99.90;;;;;;5070341;28;20035;-78
2022/07/25 02:10:59;;;;;;;26.83;24.88;;;17.30;99.90;;;;;;5057156;28;20094;-77
2022/07/25 02:13:26;;;;;;;28.27;26.10;;;17.30;99.90;;;;;;5061334;28;20040;-77
2022/07/25 02:15:53;;;;;;;27.92;25.73;;;17.30;99.90;;;;;;5079738;28;20386;-77
2022/07/25 02:18:20;;;;;;;26.25;24.38;;;17.40;99.90;;;;;;5056565;28;20098;-77
2022/07/25 02:20:47;;;;;;;26.70;24.77;;;17.50;99.90;;;;;;5042431;28;20059;-77
2022/07/25 02:23:14;;;;;;;25.98;24.08;;;17.60;99.90;;;;;;5066754;28;20134;-77
2022/07/25 02:25:41;;;;;;;26.58;24.58;;;17.40;99.90;;;;;;5068204;28;20048;-78
2022/07/25 02:28:07;;;;;;;25.67;23.95;;;17.40;99.90;;;;;;5067792;28;20045;-77
2022/07/25 02:30:36;;;;;;;26.45;24.55;;;17.40;99.90;;;;;;5058915;28;20036;-77
2022/07/25 02:33:03;;;;;;;25.92;24.13;;;17.60;99.90;;;;;;5049861;28;20041;-77
2022/07/25 02:35:30;;;;;;;26.70;24.83;;;17.50;99.90;;;;;;5037408;28;20040;-77
2022/07/25 02:37:57;;;;;;;26.30;24.45;;;17.50;99.90;;;;;;5065729;28;20056;-77
2022/07/25 02:40:24;;;;;;;27.67;25.63;;;17.60;99.90;;;;;;5067052;28;20141;-77
2022/07/25 02:42:51;;;;;;;26.48;24.67;;;17.60;99.90;;;;;;5046352;28;20044;-77
2022/07/25 02:45:17;;;;;;;26.40;24.60;;;17.60;99.90;;;;;;5046366;28;20052;-77
2022/07/25 02:47:44;;;;;;;25.48;23.58;;;17.60;99.90;;;;;;5055133;28;20044;-78
2022/07/25 02:50:11;;;;;;;26.80;24.55;;;17.60;99.90;;;;;;5043621;28;20101;-78
2022/07/25 02:52:41;;;;;;;26.65;24.80;;;17.70;99.90;;;;;;5078832;28;20107;-78
2022/07/25 02:55:08;;;;;;;26.98;25.02;;;17.70;99.90;;;;;;5073131;28;20044;-78
2022/07/25 02:57:36;;;;;;;27.17;24.42;;;17.80;99.90;;;;;;5065576;28;20036;-77
2022/07/25 03:00:05;;;;;;;25.98;24.20;;;17.80;99.90;;;;;;5082897;28;20050;-77
2022/07/25 03:02:32;;;;;;;26.25;24.35;;;17.90;99.90;;;;;;5066996;28;20044;-77
2022/07/25 03:04:58;;;;;;;26.25;24.50;;;17.80;99.90;;;;;;5066987;28;20590;-78
2022/07/25 03:07:25;;;;;;;26.83;24.80;;;17.90;99.90;;;;;;5079412;28;20047;-78
2022/07/25 03:09:52;;;;;;;27.08;25.10;;;17.90;99.90;;;;;;5065021;28;20632;-77
2022/07/25 03:12:19;;;;;;;26.60;24.80;;;17.90;99.90;;;;;;5058438;28;20040;-77
2022/07/25 03:14:45;;;;;;;27.73;25.52;;;17.80;99.90;;;;;;5066529;28;20044;-77
2022/07/25 03:17:12;;;;;;;26.95;24.95;;;17.80;99.90;;;;;;5074909;28;20035;-77
2022/07/25 03:19:39;;;;;;;26.67;24.77;;;17.60;99.90;;;;;;5037955;28;20111;-77
2022/07/25 03:22:06;;;;;;;26.67;24.77;;;17.70;99.90;;;;;;5078006;28;20102;-77
2022/07/25 03:24:32;;;;;;;27.38;25.45;;;17.60;99.90;;;;;;5057219;28;20451;-77
2022/07/25 03:26:59;;;;;;;26.90;24.65;;;17.50;99.90;;;;;;5078881;28;20097;-77
2022/07/25 03:29:26;;;;;;;26.95;25.00;;;17.40;99.90;;;;;;5077964;28;20044;-77
2022/07/25 03:31:53;;;;;;;26.52;24.73;;;17.30;99.90;;;;;;5092513;28;20035;-77
2022/07/25 03:34:20;;;;;;;25.98;24.27;;;17.20;99.90;;;;;;5064281;28;20185;-77
2022/07/25 03:36:46;;;;;;;26.35;24.55;;;17.30;99.90;;;;;;5056054;28;20431;-77
2022/07/25 03:39:13;;;;;;;26.50;24.65;;;17.20;99.90;;;;;;5050495;28;20653;-77
2022/07/25 03:41:40;;;;;;;26.30;24.40;;;17.20;99.90;;;;;;5045352;28;21369;-77
2022/07/25 03:44:07;;;;;;;26.00;24.25;;;17.30;99.90;;;;;;5057267;28;20133;-77
2022/07/25 03:46:35;;;;;;;26.35;24.45;;;17.20;99.90;;;;;;5050384;28;20575;-77
2022/07/25 03:49:02;;;;;;;26.48;24.48;;;17.10;99.90;;;;;;5060890;28;20098;-77
2022/07/25 03:51:29;;;;;;;26.52;24.63;;;17.20;99.90;;;;;;5059409;28;20050;-77
2022/07/25 03:54:01;;;;;;;27.33;25.52;;;17.10;99.90;;;;;;5074885;28;20459;-77
2022/07/25 03:56:50;;;;;;;27.42;25.42;;;17.00;99.90;;;;;;5090318;28;20067;-77
2022/07/25 03:59:19;;;;;;;27.63;25.63;;;16.90;99.90;;;;;;5090930;28;20180;-77
2022/07/25 04:01:48;;;;;;;28.73;26.60;;;17.00;99.90;;;;;;5100947;28;20035;-77
2022/07/25 04:04:16;;;;;;;28.77;26.15;;;16.90;99.90;;;;;;5059171;28;20605;-76
2022/07/25 04:06:43;;;;;;;27.00;25.05;;;16.80;99.90;;;;;;5075569;28;20044;-77
2022/07/25 04:09:11;;;;;;;28.25;25.95;;;16.80;99.90;;;;;;5059145;28;20031;-77
2022/07/25 04:11:38;;;;;;;27.92;25.92;;;16.80;99.90;;;;;;5067201;28;20102;-76
2022/07/25 04:14:05;;;;;;;27.80;25.85;;;16.80;99.90;;;;;;5094758;28;20031;-76
2022/07/25 04:16:33;;;;;;;27.75;25.67;;;16.90;99.90;;;;;;5115882;28;20031;-76
2022/07/25 04:19:00;;;;;;;28.25;25.88;;;16.90;99.90;;;;;;5122253;28;20038;-76
2022/07/25 04:21:27;;;;;;;28.35;26.15;;;16.90;99.90;;;;;;5092068;28;20047;-76
2022/07/25 04:23:54;;;;;;;28.23;26.23;;;16.90;99.90;;;;;;5107022;28;20031;-76
2022/07/25 04:26:21;;;;;;;27.85;25.85;;;16.90;99.90;;;;;;5099397;28;20044;-76
2022/07/25 04:28:48;;;;;;;27.25;25.35;;;16.90;99.90;;;;;;5103115;28;20084;-77
2022/07/25 04:31:15;;;;;;;27.42;25.48;;;16.90;99.90;;;;;;5081789;28;20036;-76
2022/07/25 04:33:43;;;;;;;27.70;25.38;;;17.00;99.90;;;;;;5073417;28;20039;-77
2022/07/25 04:36:09;;;;;;;27.65;25.48;;;17.00;99.90;;;;;;5080188;28;20047;-76
2022/07/25 04:38:36;;;;;;;26.67;24.55;;;17.00;99.90;;;;;;5060674;28;20047;-77
2022/07/25 04:41:03;;;;;;;27.63;25.63;;;17.10;99.90;;;;;;5079669;28;20707;-77
2022/07/25 04:43:30;;;;;;;28.73;26.33;;;17.20;99.90;;;;;;5065023;28;20051;-77
2022/07/25 04:45:57;;;;;;;27.65;25.65;;;17.20;99.90;;;;;;5065410;28;20048;-76
2022/07/25 04:48:24;;;;;;;27.30;25.27;;;17.30;99.90;;;;;;5074393;28;20055;-76
2022/07/25 04:50:51;;;;;;;28.23;26.13;;;17.30;99.90;;;;;;5097933;28;20091;-76
2022/07/25 04:53:18;;;;;;;29.08;26.83;;;17.50;99.90;;;;;;5076837;28;20043;-76
2022/07/25 04:55:45;;;;;;;28.27;26.25;;;17.50;99.90;;;;;;5061027;28;20097;-76
2022/07/25 04:58:11;;;;;;;28.90;26.45;;;17.50;99.90;;;;;;5065905;28;20074;-76
2022/07/25 05:00:38;;;;;;;29.77;27.10;;;17.60;99.90;;;;;;5066833;28;20036;-77
2022/07/25 05:03:05;;;;;;;29.38;27.10;;;17.70;99.90;;;;;;5069676;28;20043;-76
2022/07/25 05:05:32;;;;;;;30.65;28.33;;;18.00;99.90;;;;;;5070907;28;20040;-76
2022/07/25 05:07:59;;;;;;;29.15;27.08;;;18.20;99.90;;;;;;5066069;28;20098;-76
2022/07/25 05:10:27;;;;;;;29.73;27.38;;;18.40;99.90;;;;;;5072877;28;20054;-76
2022/07/25 05:12:55;;;;;;;29.42;27.42;;;18.60;99.90;;;;;;5089097;28;20044;-75
2022/07/25 05:15:22;;;;;;;27.85;26.00;;;18.90;99.90;;;;;;5083635;28;20047;-76
2022/07/25 05:17:50;;;;;;;29.35;27.33;;;19.30;99.90;;;;;;5071805;28;20036;-76
2022/07/25 05:20:17;;;;;;;28.48;26.38;;;19.80;99.90;;;;;;5073130;28;20100;-75
2022/07/25 05:22:43;;;;;;;28.98;26.88;;;20.30;99.90;;;;;;5091812;28;20101;-76
2022/07/25 05:25:11;;;;;;;30.00;27.95;;;20.70;99.90;;;;;;5090983;28;20120;-76
2022/07/25 05:27:38;;;;;;;28.60;26.55;;;21.10;99.90;;;;;;5082801;28;20503;-76
2022/07/25 05:30:06;;;;;;;29.33;27.23;;;21.40;99.90;;;;;;5070522;28;20043;-76
2022/07/25 05:32:33;;;;;;;30.40;27.67;;;21.90;99.90;;;;;;5058244;28;20055;-76
2022/07/25 05:35:00;;;;;;;29.20;27.05;;;22.10;99.90;;;;;;5050615;28;20265;-76
2022/07/25 05:37:27;;;;;;;29.08;27.08;;;22.30;99.90;;;;;;5091021;28;20067;-76
2022/07/25 05:39:54;;;;;;;29.02;27.13;;;22.70;99.90;;;;;;5070142;28;20044;-76
2022/07/25 05:42:20;;;;;;;29.63;27.45;;;23.00;99.90;;;;;;5081182;22;20040;-72
2022/07/25 05:44:47;;;;;;;28.83;26.73;;;23.20;99.90;;;;;;5031076;28;20053;-73
2022/07/25 05:47:14;;;;;;;28.80;26.60;;;23.40;99.90;;;;;;5048943;28;20067;-73
2022/07/25 05:49:41;;;;;;;28.95;27.15;;;23.60;99.90;;;;;;5045899;28;20055;-73
2022/07/25 05:52:08;;;;;;;28.83;26.92;;;23.80;99.90;;;;;;5055769;28;20036;-73
2022/07/25 05:54:40;;;;;;;29.25;27.10;;;24.00;99.90;;;;;;5052711;28;20102;-72
2022/07/25 05:57:06;;;;;;;29.15;27.25;;;24.20;99.90;;;;;;5056002;28;20114;-73
2022/07/25 05:59:33;;;;;;;28.65;26.77;;;24.20;99.90;;;;;;5051964;28;20205;-73
2022/07/25 06:02:01;;;;;;;29.45;27.45;;;24.40;99.90;;;;;;5052211;28;20049;-73
2022/07/25 06:04:28;;;;;;;28.25;26.45;;;24.60;99.90;;;;;;5049995;28;20056;-73
2022/07/25 06:06:55;;;;;;;29.13;27.33;;;24.60;99.90;;;;;;5050934;28;20052;-73
2022/07/25 06:09:22;;;;;;;27.98;26.15;;;24.60;99.90;;;;;;5052793;28;20440;-73
2022/07/25 06:11:49;;;;;;;28.73;26.55;;;24.90;99.90;;;;;;5051122;28;20037;-74
2022/07/25 06:14:26;;;;;;;28.98;26.98;;;25.10;99.90;;;;;;5051627;28;20105;-73
2022/07/25 06:16:54;;;;;;;29.55;27.10;;;25.40;99.90;;;;;;5056594;28;20044;-73
2022/07/25 06:19:21;;;;;;;29.27;26.92;;;25.40;99.90;;;;;;5052902;28;20197;-72
2022/07/25 06:21:47;;;;;;;27.95;26.25;;;25.50;99.90;;;;;;5038222;28;20094;-73
2022/07/25 06:24:14;;;;;;;27.90;26.10;;;25.60;99.90;;;;;;5048796;28;20126;-73
2022/07/25 06:26:41;;;;;;;30.10;27.60;;;25.60;99.90;;;;;;5050220;28;20049;-73
2022/07/25 06:29:08;;;;;;;28.50;26.70;;;25.60;99.90;;;;;;5055887;28;20067;-74
2022/07/25 06:31:35;;;;;;;29.80;27.92;;;25.70;99.90;;;;;;5050628;28;20040;-74
2022/07/25 06:34:01;;;;;;;29.10;27.27;;;25.70;99.90;;;;;;5055709;28;20364;-73
2022/07/25 06:36:28;;;;;;;29.83;27.90;;;25.80;99.90;;;;;;5050162;28;20382;-72
2022/07/25 06:38:59;;;;;;;30.42;27.92;;;26.00;99.90;;;;;;5054438;28;20067;-73
2022/07/25 06:41:26;;;;;;;30.05;28.02;;;26.20;99.90;;;;;;5032874;28;20040;-73
2022/07/25 06:43:53;;;;;;;30.50;28.67;;;26.30;99.90;;;;;;5051848;28;20052;-72
2022/07/25 06:46:19;;;;;;;32.25;29.90;;;26.50;99.90;;;;;;5050314;28;20423;-76
2022/07/25 06:48:46;;;;;;;31.80;29.20;;;26.70;99.90;;;;;;5049681;28;20044;-75
2022/07/25 06:51:13;;;;;;;29.75;27.95;;;26.90;99.90;;;;;;5052691;28;20040;-75
2022/07/25 06:53:40;;;;;;;31.23;29.23;;;26.90;99.90;;;;;;5051381;28;20079;-76
2022/07/25 06:56:07;;;;;;;31.20;29.00;;;27.00;99.90;;;;;;5055582;28;20036;-75
2022/07/25 06:58:36;;;;;;;31.20;28.90;;;27.30;99.90;;;;;;5050063;28;21299;-75
2022/07/25 07:01:03;;;;;;;31.35;28.92;;;27.40;99.90;;;;;;5052749;28;20094;-73
2022/07/25 07:03:31;;;;;;;31.45;29.23;;;27.60;99.90;;;;;;5046114;28;20045;-73
2022/07/25 07:05:59;;;;;;;31.77;29.88;;;27.80;99.90;;;;;;5053506;28;20048;-73
2022/07/25 07:08:26;;;;;;;30.00;28.10;;;27.80;99.90;;;;;;5047184;28;20603;-74
2022/07/25 07:10:53;;;;;;;31.10;29.10;;;27.90;99.90;;;;;;5049784;28;20041;-73
2022/07/25 07:13:22;;;;;;;30.52;28.63;;;28.20;99.90;;;;;;5042310;28;20049;-74
2022/07/25 07:15:50;;;;;;;31.77;29.80;;;28.20;99.90;;;;;;5052370;28;20067;-73
2022/07/25 07:18:20;;;;;;;32.13;29.95;;;28.30;99.90;;;;;;5051671;28;20044;-73
2022/07/25 07:20:47;;;;;;;30.50;28.60;;;28.30;99.90;;;;;;5051925;28;20040;-74
2022/07/25 07:23:14;;;;;;;32.25;30.30;;;28.60;99.90;;;;;;5053554;28;20040;-74
2022/07/25 07:25:45;;;;;;;32.33;30.23;;;28.80;99.90;;;;;;5053263;28;20375;-73
2022/07/25 07:28:12;;;;;;;32.25;29.95;;;28.80;99.90;;;;;;5052384;28;20090;-74
2022/07/25 07:30:39;;;;;;;32.03;30.00;;;29.20;99.90;;;;;;5045590;28;20032;-74
2022/07/25 07:33:26;;;;;;;32.28;30.13;;;29.30;99.90;;;;;;5046224;28;20049;-74
2022/07/25 07:35:54;;;;;;;32.00;29.90;;;29.40;99.90;;;;;;5052762;28;20041;-74
2022/07/25 07:38:22;;;;;;;31.75;29.88;;;29.50;99.90;;;;;;5046719;28;20507;-72
2022/07/25 07:40:49;;;;;;;31.73;29.60;;;29.60;99.90;;;;;;5049152;28;20048;-71
2022/07/25 07:43:16;;;;;;;32.58;30.58;;;29.90;99.90;;;;;;5050390;28;20102;-72
2022/07/25 07:45:43;;;;;;;31.58;29.42;;;30.00;99.90;;;;;;5048846;28;20283;-70
2022/07/25 07:48:10;;;;;;;33.13;31.02;;;29.90;99.90;;;;;;5052018;28;20076;-70
2022/07/25 07:50:37;;;;;;;32.58;30.58;;;29.90;99.90;;;;;;5064649;28;20563;-70
2022/07/25 07:53:04;;;;;;;33.50;31.30;;;29.90;99.90;;;;;;5050843;28;20469;-72
2022/07/25 07:55:43;;;;;;;32.38;30.38;;;30.00;99.90;;;;;;5048962;28;20044;-70
2022/07/25 07:58:15;;;;;;;33.30;31.10;;;30.20;99.90;;;;;;5051512;28;20048;-70
2022/07/25 08:00:44;;;;;;;32.33;30.25;;;30.20;99.90;;;;;;5047507;28;20041;-70
2022/07/25 08:03:11;;;;;;;32.95;30.75;;;30.40;99.90;;;;;;5050725;28;20094;-72
2022/07/25 08:05:41;;;;;;;32.45;30.17;;;30.50;99.90;;;;;;5048906;28;20340;-71
2022/07/25 08:08:12;;;;;;;33.58;31.27;;;30.50;99.90;;;;;;5033789;28;20609;-73
2022/07/25 08:10:41;;;;;;;32.95;30.85;;;30.50;99.90;;;;;;5048064;28;20093;-74
2022/07/25 08:13:21;;;;;;;31.80;29.70;;;30.50;99.90;;;;;;5051752;28;20119;-74
2022/07/25 08:15:50;;;;;;;32.25;30.15;;;30.90;99.90;;;;;;5049092;28;20219;-73
2022/07/25 08:18:18;;;;;;;31.00;28.85;;;31.00;99.90;;;;;;5049747;28;20180;-71
2022/07/25 08:20:49;;;;;;;31.17;28.90;;;30.90;99.90;;;;;;5049226;28;20051;-72
2022/07/25 08:23:16;;;;;;;32.08;29.92;;;30.80;99.90;;;;;;5051685;28;20106;-70
2022/07/25 08:25:44;;;;;;;32.42;30.27;;;30.80;99.90;;;;;;5049644;28;20044;-71
2022/07/25 08:28:12;;;;;;;31.65;29.50;;;30.60;99.90;;;;;;5050946;28;20516;-71
2022/07/25 08:30:39;;;;;;;32.80;30.40;;;30.50;99.90;;;;;;5048609;28;20067;-71
2022/07/25 08:33:09;;;;;;;33.05;30.67;;;30.70;99.90;;;;;;5052209;28;20169;-73
2022/07/25 08:35:36;;;;;;;31.50;29.40;;;30.70;99.90;;;;;;5047660;28;20036;-71
2022/07/25 08:38:04;;;;;;;30.67;28.58;;;30.70;99.90;;;;;;5051727;28;20123;-72
2022/07/25 08:40:33;;;;;;;32.63;30.42;;;30.50;99.90;;;;;;5049659;28;20541;-73
2022/07/25 08:43:00;;;;;;;31.75;29.58;;;30.40;99.90;;;;;;5048227;28;20098;-74
2022/07/25 08:45:29;;;;;;;30.40;28.30;;;30.50;99.90;;;;;;5050788;28;20197;-73
2022/07/25 08:47:56;;;;;;;30.40;28.40;;;30.50;99.90;;;;;;5050915;28;20106;-73
2022/07/25 08:50:27;;;;;;;31.48;29.27;;;30.80;99.90;;;;;;5048809;28;20499;-74
2022/07/25 08:52:54;;;;;;;29.98;27.88;;;30.60;99.90;;;;;;5051030;28;20056;-69
2022/07/25 08:55:43;;;;;;;31.58;29.48;;;30.60;99.90;;;;;;5048781;28;20044;-74
2022/07/25 08:58:14;;;;;;;32.78;30.58;;;30.60;99.90;;;;;;5050917;28;20482;-73
2022/07/25 09:00:42;;;;;;;32.20;30.10;;;30.60;99.90;;;;;;5049335;28;20474;-72
2022/07/25 09:03:10;;;;;;;34.05;31.70;;;30.80;99.90;;;;;;5050526;28;20107;-73
2022/07/25 09:05:37;;;;;;;33.63;31.08;;;31.10;99.90;;;;;;5030381;28;20319;-71
2022/07/25 09:08:12;;;;;;;32.72;30.35;;;31.20;99.90;;;;;;5049521;28;20044;-69
2022/07/25 09:10:45;;;;;;;32.22;29.95;;;31.60;99.90;;;;;;5052437;28;20494;-74
2022/07/25 09:13:13;;;;;;;33.42;30.98;;;31.70;99.90;;;;;;5053695;28;20104;-73
2022/07/25 09:15:51;;;;;;;33.13;31.02;;;31.60;99.90;;;;;;5052893;28;20273;-74
2022/07/25 09:18:23;;;;;;;33.90;31.13;;;31.80;99.90;;;;;;5051248;28;20048;-72
2022/07/25 09:21:01;;;;;;;32.58;30.25;;;32.00;99.90;;;;;;5054511;28;20091;-73
2022/07/25 09:23:38;;;;;;;34.03;31.75;;;32.10;99.90;;;;;;5051107;28;20152;-74
2022/07/25 09:26:08;;;;;;;32.65;30.38;;;32.10;99.90;;;;;;5050674;28;20098;-70
2022/07/25 09:28:54;;;;;;;32.05;30.05;;;32.30;99.90;;;;;;5048247;28;20052;-71
2022/07/25 09:31:31;;;;;;;31.35;28.90;;;32.00;98.70;;;;;;5052311;28;20055;-69
2022/07/25 09:34:00;;;;;;;30.83;28.67;;;31.90;98.80;;;;;;5052566;28;20040;-70
2022/07/25 09:36:27;;;;;;;32.33;30.33;;;31.50;98.60;;;;;;5066181;28;20052;-71
2022/07/25 09:38:55;;;;;;;32.35;30.17;;;31.40;98.50;;;;;;5054479;28;20094;-71
2022/07/25 09:41:36;;;;;;;33.53;31.27;;;31.40;98.90;;;;;;5039933;28;20072;-69
2022/07/25 09:44:03;;;;;;;32.72;30.75;;;31.40;99.00;;;;;;5051234;28;20106;-70
2022/07/25 09:46:31;;;;;;;30.83;28.85;;;31.40;97.90;;;;;;5052425;28;20133;-70
2022/07/25 09:48:59;;;;;;;34.88;32.65;;;31.30;97.90;;;;;;5054556;28;20040;-72
2022/07/25 09:51:27;;;;;;;34.35;32.15;;;31.40;98.80;;;;;;5049466;28;20040;-71
2022/07/25 09:53:54;;;;;;;33.08;30.98;;;31.80;98.30;;;;;;5052968;28;20297;-71
2022/07/25 09:56:21;;;;;;;31.35;29.15;;;32.00;98.60;;;;;;5053108;28;20109;-70
2022/07/25 09:58:48;;;;;;;33.10;30.80;;;32.10;98.10;;;;;;5048885;28;20040;-71
2022/07/25 10:01:24;;;;;;;34.92;32.72;;;31.90;97.70;;;;;;5049445;28;20041;-70
2022/07/25 10:04:03;;;;;;;34.20;32.00;;;31.70;97.10;;;;;;5063116;28;20550;-72
2022/07/25 10:06:49;;;;;;;34.60;31.98;;;31.90;97.20;;;;;;5053209;28;20052;-71
2022/07/25 10:09:16;;;;;;;32.55;30.30;;;31.90;97.40;;;;;;5050813;28;20163;-72
2022/07/25 10:12:07;;;;;;;32.72;30.42;;;31.70;97.00;;;;;;5051681;28;20086;-70
2022/07/25 10:14:35;;;;;;;32.50;30.10;;;31.40;97.00;;;;;;5041666;28;20077;-73
2022/07/25 10:17:03;;;;;;;32.75;30.55;;;31.20;97.40;;;;;;5052162;28;20059;-73
2022/07/25 10:19:46;;;;;;;33.45;31.08;;;30.80;97.10;;;;;;5045389;28;20056;-74
2022/07/25 10:22:20;;;;;;;33.17;30.58;;;30.80;97.70;;;;;;5035387;28;20049;-71
2022/07/25 10:25:12;;;;;;;32.15;30.00;;;30.60;98.00;;;;;;5049728;28;20516;-75
2022/07/25 10:27:57;;;;;;;32.33;30.13;;;30.60;98.30;;;;;;5047633;28;20079;-75
2022/07/25 10:30:34;;;;;;;32.50;30.20;;;30.60;98.50;;;;;;5043879;28;20306;-76
2022/07/25 10:33:04;;;;;;;32.80;30.58;;;30.60;98.20;;;;;;5047398;28;20047;-72
2022/07/25 10:35:31;;;;;;;32.22;30.05;;;30.50;98.60;;;;;;5043125;28;20040;-76
2022/07/25 10:38:02;;;;;;;33.00;30.80;;;30.50;99.10;;;;;;5048758;28;20044;-75
2022/07/25 10:40:45;;;;;;;33.05;30.75;;;30.50;99.60;;;;;;5046530;28;20075;-76
2022/07/25 10:43:16;;;;;;;33.22;30.63;;;30.50;99.90;;;;;;5052542;28;20098;-76
2022/07/25 10:45:57;;;;;;;32.67;30.42;;;30.40;99.00;;;;;;5050034;28;20049;-75
2022/07/25 10:48:27;;;;;;;32.88;30.67;;;30.30;98.80;;;;;;5046064;28;20048;-75
2022/07/25 10:50:59;;;;;;;34.15;31.85;;;30.30;99.10;;;;;;5051653;28;20292;-74
2022/07/25 10:53:29;;;;;;;33.45;31.15;;;30.40;99.30;;;;;;5050584;28;20500;-71
2022/07/25 10:56:07;;;;;;;34.05;31.67;;;30.50;99.80;;;;;;5050574;28;20113;-72
2022/07/25 10:58:44;;;;;;;33.92;31.55;;;30.60;99.10;;;;;;5031030;28;20048;-73
2022/07/25 11:01:13;;;;;;;32.67;30.42;;;30.60;99.50;;;;;;5050792;28;20118;-75
2022/07/25 11:03:43;;;;;;;35.85;33.22;;;30.50;99.60;;;;;;5049033;28;20277;-72
2022/07/25 11:06:12;;;;;;;36.90;34.33;;;30.50;99.90;;;;;;5051659;28;20432;-72
2022/07/25 11:08:39;;;;;;;37.22;34.75;;;30.80;99.90;;;;;;5048989;28;20131;-75
2022/07/25 11:11:07;;;;;;;35.03;32.88;;;31.20;99.90;;;;;;5051218;28;20602;-75
2022/07/25 11:13:42;;;;;;;36.75;34.13;;;31.80;99.90;;;;;;5050381;28;20068;-73
2022/07/25 11:16:09;;;;;;;37.58;35.20;;;31.90;98.80;;;;;;5047844;28;20073;-75
2022/07/25 11:18:38;;;;;;;36.40;34.00;;;32.10;98.50;;;;;;5049898;28;20048;-75
2022/07/25 11:21:07;;;;;;;33.25;30.70;;;32.10;98.00;;;;;;5047707;28;20052;-73
2022/07/25 11:23:35;;;;;;;34.97;32.42;;;31.80;98.50;;;;;;5049786;28;20056;-75
2022/07/25 11:26:11;;;;;;;32.92;30.80;;;31.70;98.10;;;;;;5052472;28;20491;-75
2022/07/25 11:28:43;;;;;;;34.85;32.65;;;31.50;98.40;;;;;;5048656;28;20690;-75
2022/07/25 11:31:12;;;;;;;34.55;32.22;;;31.20;98.50;;;;;;5048704;28;20041;-75
2022/07/25 11:33:41;;;;;;;33.58;31.25;;;31.10;98.50;;;;;;5049207;28;20568;-74
2022/07/25 11:36:09;;;;;;;34.40;32.00;;;31.20;98.70;;;;;;5050717;28;20044;-75
2022/07/25 11:38:38;;;;;;;34.35;31.95;;;31.20;98.80;;;;;;5049944;28;20084;-74
2022/07/25 11:41:06;;;;;;;34.90;32.40;;;31.00;97.60;;;;;;5047619;28;20332;-72
2022/07/25 11:43:33;;;;;;;34.33;32.03;;;30.90;98.80;;;;;;5047536;28;20044;-72
2022/07/25 11:46:05;;;;;;;33.13;30.92;;;30.90;98.30;;;;;;5049000;28;20106;-73
2022/07/25 11:48:38;;;;;;;34.05;31.85;;;30.70;98.40;;;;;;5048474;28;20106;-73
2022/07/25 11:51:10;;;;;;;36.17;33.67;;;30.50;98.90;;;;;;5048288;28;20040;-72
2022/07/25 11:53:47;;;;;;;36.30;33.70;;;30.40;99.00;;;;;;5065841;28;20125;-73
2022/07/25 11:56:22;;;;;;;35.28;32.72;;;30.30;99.10;;;;;;5043959;28;20395;-73
2022/07/25 11:59:08;;;;;;;34.87;32.43;;;30.20;99.80;;;;;;5052023;28;20533;-72
2022/07/25 12:01:38;;;;;;;36.55;34.15;;;30.10;99.90;;;;;;5048450;28;20080;-73
2022/07/25 12:04:08;;;;;;;36.28;33.67;;;30.10;99.90;;;;;;5050939;28;20141;-73
2022/07/25 12:06:35;;;;;;;37.17;34.70;;;30.00;99.90;;;;;;5049494;28;20052;-71
2022/07/25 12:09:19;;;;;;;37.22;34.58;;;29.70;99.90;;;;;;5048422;28;20102;-73
2022/07/25 12:11:47;;;;;;;36.00;33.28;;;29.60;99.90;;;;;;5050698;28;20065;-74
2022/07/25 12:14:15;;;;;;;34.85;32.25;;;29.50;99.90;;;;;;5036340;28;20051;-73
2022/07/25 12:16:42;;;;;;;37.28;34.47;;;29.50;99.90;;;;;;5049485;28;20323;-74
2022/07/25 12:19:17;;;;;;;37.17;34.67;;;29.40;99.90;;;;;;5050737;28;20037;-74
2022/07/25 12:21:44;;;;;;;36.13;33.53;;;29.30;99.90;;;;;;5049194;28;20086;-74
2022/07/25 12:24:11;;;;;;;37.92;34.85;;;29.20;99.90;;;;;;5050925;28;20052;-74
2022/07/25 12:26:37;;;;;;;38.13;35.17;;;29.10;99.90;;;;;;5050551;28;20441;-74
2022/07/25 12:29:04;;;;;;;36.17;33.40;;;29.10;99.90;;;;;;5049997;28;20041;-74
2022/07/25 12:31:31;;;;;;;33.65;31.33;;;29.00;99.90;;;;;;5048877;28;20056;-73
2022/07/25 12:33:58;;;;;;;36.08;33.50;;;29.00;99.90;;;;;;5052146;28;20147;-73
2022/07/25 12:36:25;;;;;;;36.35;33.72;;;28.90;99.90;;;;;;5047176;28;20080;-74
2022/07/25 12:38:52;;;;;;;34.63;32.17;;;28.70;99.90;;;;;;5050703;28;20053;-74